sensor_id;sensor_type;location;lat;lon;timestamp;pressure;altitude;pressure_sealevel;temperature;humidity
61757;BME280;57225;61.460;24.060;2023-05-07T00:01:18;101598.03;;;0.47;68.31
61757;BME280;57225;61.460;24.060;2023-05-07T00:04:03;101606.50;;;0.50;68.58
61757;BME280;57225;61.460;24.060;2023-05-07T00:06:47;101609.28;;;0.45;68.80
61757;BME280;57225;61.460;24.060;2023-05-07T00:09:32;101599.06;;;0.32;69.35
61757;BME280;57225;61.460;24.060;2023-05-07T00:12:16;101589.09;;;0.22;70.49
61757;BME280;57225;61.460;24.060;2023-05-07T00:15:03;101613.78;;;0.22;69.40
61757;BME280;57225;61.460;24.060;2023-05-07T00:17:47;101612.50;;;0.15;69.01
61757;BME280;57225;61.460;24.060;2023-05-07T00:20:32;101599.25;;;0.03;70.13
61757;BME280;57225;61.460;24.060;2023-05-07T00:23:25;101610.88;;;-0.05;70.32
61757;BME280;57225;61.460;24.060;2023-05-07T00:26:10;101595.75;;;-0.21;71.27
61757;BME280;57225;61.460;24.060;2023-05-07T00:28:54;101602.50;;;-0.32;71.54
61757;BME280;57225;61.460;24.060;2023-05-07T00:31:39;101611.38;;;-0.22;73.78
61757;BME280;57225;61.460;24.060;2023-05-07T00:34:23;101619.88;;;-0.23;74.57
61757;BME280;57225;61.460;24.060;2023-05-07T00:37:08;101622.13;;;-0.25;74.66
61757;BME280;57225;61.460;24.060;2023-05-07T00:39:52;101621.06;;;-0.29;74.63
61757;BME280;57225;61.460;24.060;2023-05-07T00:42:37;101622.13;;;-0.25;74.04
61757;BME280;57225;61.460;24.060;2023-05-07T00:45:24;101616.69;;;-0.30;73.85
61757;BME280;57225;61.460;24.060;2023-05-07T00:48:10;101629.00;;;-0.28;73.89
61757;BME280;57225;61.460;24.060;2023-05-07T00:50:54;101627.13;;;-0.32;74.56
61757;BME280;57225;61.460;24.060;2023-05-07T00:53:39;101625.50;;;-0.33;74.86
61757;BME280;57225;61.460;24.060;2023-05-07T00:56:24;101615.53;;;-0.48;75.09
61757;BME280;57225;61.460;24.060;2023-05-07T00:59:10;101614.22;;;-0.51;75.26
61757;BME280;57225;61.460;24.060;2023-05-07T01:01:54;101629.88;;;-0.56;75.37
61757;BME280;57225;61.460;24.060;2023-05-07T01:04:39;101627.72;;;-0.59;76.47
61757;BME280;57225;61.460;24.060;2023-05-07T01:07:24;101631.56;;;-0.60;76.70
61757;BME280;57225;61.460;24.060;2023-05-07T01:10:09;101627.25;;;-0.66;76.34
61757;BME280;57225;61.460;24.060;2023-05-07T01:12:54;101633.78;;;-0.62;76.09
61757;BME280;57225;61.460;24.060;2023-05-07T01:15:39;101626.44;;;-0.67;76.28
61757;BME280;57225;61.460;24.060;2023-05-07T01:18:25;101636.81;;;-0.64;75.94
61757;BME280;57225;61.460;24.060;2023-05-07T01:21:11;101636.34;;;-0.71;75.96
61757;BME280;57225;61.460;24.060;2023-05-07T01:23:56;101624.09;;;-0.78;76.64
61757;BME280;57225;61.460;24.060;2023-05-07T01:26:43;101624.69;;;-0.82;76.58
61757;BME280;57225;61.460;24.060;2023-05-07T01:29:28;101628.22;;;-0.81;76.64
61757;BME280;57225;61.460;24.060;2023-05-07T01:32:13;101630.41;;;-0.78;76.07
61757;BME280;57225;61.460;24.060;2023-05-07T01:35:00;101634.31;;;-0.84;76.22
61757;BME280;57225;61.460;24.060;2023-05-07T01:37:47;101639.25;;;-0.86;76.29
61757;BME280;57225;61.460;24.060;2023-05-07T01:40:33;101632.47;;;-0.94;75.83
61757;BME280;57225;61.460;24.060;2023-05-07T01:43:19;101633.34;;;-0.98;75.92
61757;BME280;57225;61.460;24.060;2023-05-07T01:46:03;101643.66;;;-0.90;76.15
61757;BME280;57225;61.460;24.060;2023-05-07T01:48:49;101642.31;;;-0.93;76.11
61757;BME280;57225;61.460;24.060;2023-05-07T01:51:34;101643.41;;;-0.94;76.99
61757;BME280;57225;61.460;24.060;2023-05-07T01:54:19;101641.28;;;-0.97;77.05
61757;BME280;57225;61.460;24.060;2023-05-07T01:57:10;101643.72;;;-0.95;77.17
61757;BME280;57225;61.460;24.060;2023-05-07T01:59:55;101650.28;;;-0.96;76.91
61757;BME280;57225;61.460;24.060;2023-05-07T02:02:39;101644.22;;;-0.93;76.94
61757;BME280;57225;61.460;24.060;2023-05-07T02:05:24;101625.47;;;-1.05;77.16
61757;BME280;57225;61.460;24.060;2023-05-07T02:08:08;101634.72;;;-1.01;76.86
61757;BME280;57225;61.460;24.060;2023-05-07T02:10:52;101645.38;;;-0.99;76.93
61757;BME280;57225;61.460;24.060;2023-05-07T02:13:38;101635.53;;;-1.00;76.83
61757;BME280;57225;61.460;24.060;2023-05-07T02:16:22;101625.47;;;-1.05;77.08
61757;BME280;57225;61.460;24.060;2023-05-07T02:19:07;101628.47;;;-1.01;77.21
61757;BME280;57225;61.460;24.060;2023-05-07T02:21:52;101625.19;;;-1.03;77.03
61757;BME280;57225;61.460;24.060;2023-05-07T02:24:37;101627.97;;;-1.08;76.74
61757;BME280;57225;61.460;24.060;2023-05-07T02:27:21;101646.16;;;-0.94;77.03
61757;BME280;57225;61.460;24.060;2023-05-07T02:30:07;101638.69;;;-0.88;76.92
61757;BME280;57225;61.460;24.060;2023-05-07T02:32:52;101650.66;;;-0.79;77.30
61757;BME280;57225;61.460;24.060;2023-05-07T02:35:36;101647.31;;;-0.71;77.24
61757;BME280;57225;61.460;24.060;2023-05-07T02:38:22;101647.78;;;-0.64;77.00
61757;BME280;57225;61.460;24.060;2023-05-07T02:41:06;101642.81;;;-0.62;76.73
61757;BME280;57225;61.460;24.060;2023-05-07T02:43:51;101649.22;;;-0.48;76.53
61757;BME280;57225;61.460;24.060;2023-05-07T02:46:35;101643.53;;;-0.51;76.60
61757;BME280;57225;61.460;24.060;2023-05-07T02:49:19;101634.97;;;-0.45;75.69
61757;BME280;57225;61.460;24.060;2023-05-07T02:52:04;101645.19;;;-0.31;76.04
61757;BME280;57225;61.460;24.060;2023-05-07T02:54:49;101640.59;;;-0.36;75.61
61757;BME280;57225;61.460;24.060;2023-05-07T02:57:34;101652.75;;;-0.23;75.31
61757;BME280;57225;61.460;24.060;2023-05-07T03:00:19;101657.13;;;-0.22;75.40
61757;BME280;57225;61.460;24.060;2023-05-07T03:03:03;101650.09;;;-0.28;75.31
61757;BME280;57225;61.460;24.060;2023-05-07T03:05:49;101649.88;;;-0.32;75.72
61757;BME280;57225;61.460;24.060;2023-05-07T03:08:33;101653.41;;;-0.31;76.08
61757;BME280;57225;61.460;24.060;2023-05-07T03:11:18;101656.59;;;-0.24;76.71
61757;BME280;57225;61.460;24.060;2023-05-07T03:14:02;101637.28;;;-0.33;75.81
61757;BME280;57225;61.460;24.060;2023-05-07T03:16:46;101646.47;;;-0.24;75.75
61757;BME280;57225;61.460;24.060;2023-05-07T03:19:31;101626.94;;;-0.17;77.43
61757;BME280;57225;61.460;24.060;2023-05-07T03:22:15;101650.28;;;-0.01;76.99
61757;BME280;57225;61.460;24.060;2023-05-07T03:25:00;101638.81;;;-0.03;76.61
61757;BME280;57225;61.460;24.060;2023-05-07T03:27:45;101647.31;;;0.14;76.44
61757;BME280;57225;61.460;24.060;2023-05-07T03:30:29;101658.38;;;0.28;76.16
61757;BME280;57225;61.460;24.060;2023-05-07T03:33:14;101644.66;;;0.47;75.20
61757;BME280;57225;61.460;24.060;2023-05-07T03:35:58;101645.78;;;0.78;74.67
61757;BME280;57225;61.460;24.060;2023-05-07T03:38:44;101635.44;;;0.89;73.43
61757;BME280;57225;61.460;24.060;2023-05-07T03:41:28;101651.97;;;1.02;73.61
61757;BME280;57225;61.460;24.060;2023-05-07T03:44:13;101650.97;;;1.12;73.83
61757;BME280;57225;61.460;24.060;2023-05-07T03:46:58;101655.25;;;1.18;74.40
61757;BME280;57225;61.460;24.060;2023-05-07T03:49:42;101648.53;;;1.10;74.60
61757;BME280;57225;61.460;24.060;2023-05-07T03:52:27;101627.34;;;0.97;75.83
61757;BME280;57225;61.460;24.060;2023-05-07T03:55:11;101653.53;;;1.22;76.14
61757;BME280;57225;61.460;24.060;2023-05-07T03:57:56;101642.84;;;1.20;76.14
61757;BME280;57225;61.460;24.060;2023-05-07T04:00:40;101646.75;;;1.47;75.82
61757;BME280;57225;61.460;24.060;2023-05-07T04:03:24;101645.75;;;1.56;75.66
61757;BME280;57225;61.460;24.060;2023-05-07T04:06:09;101636.78;;;1.51;76.14
61757;BME280;57225;61.460;24.060;2023-05-07T04:08:53;101613.66;;;1.52;76.37
61757;BME280;57225;61.460;24.060;2023-05-07T04:11:37;101640.53;;;1.82;76.20
61757;BME280;57225;61.460;24.060;2023-05-07T04:14:24;101658.31;;;1.98;75.81
61757;BME280;57225;61.460;24.060;2023-05-07T04:17:11;101652.00;;;1.98;76.02
61757;BME280;57225;61.460;24.060;2023-05-07T04:19:56;101660.78;;;2.00;76.11
61757;BME280;57225;61.460;24.060;2023-05-07T04:22:40;101656.38;;;2.13;75.76
61757;BME280;57225;61.460;24.060;2023-05-07T04:25:34;101644.84;;;2.11;75.76
61757;BME280;57225;61.460;24.060;2023-05-07T04:28:19;101627.75;;;2.14;74.91
61757;BME280;57225;61.460;24.060;2023-05-07T04:31:05;101656.41;;;2.35;75.33
61757;BME280;57225;61.460;24.060;2023-05-07T04:33:49;101634.91;;;2.37;74.64
61757;BME280;57225;61.460;24.060;2023-05-07T04:36:35;101652.06;;;2.56;74.58
61757;BME280;57225;61.460;24.060;2023-05-07T04:39:19;101657.69;;;2.73;74.10
61757;BME280;57225;61.460;24.060;2023-05-07T04:42:04;101624.41;;;2.83;73.10
61757;BME280;57225;61.460;24.060;2023-05-07T04:44:52;101661.38;;;3.92;70.10
61757;BME280;57225;61.460;24.060;2023-05-07T04:47:37;101656.47;;;6.12;62.10
61757;BME280;57225;61.460;24.060;2023-05-07T04:50:22;101644.97;;;9.50;51.38
61757;BME280;57225;61.460;24.060;2023-05-07T04:53:08;101665.75;;;12.81;42.98
61757;BME280;57225;61.460;24.060;2023-05-07T04:55:56;101634.47;;;13.43;38.83
61757;BME280;57225;61.460;24.060;2023-05-07T04:58:41;101658.72;;;14.20;37.90
61757;BME280;57225;61.460;24.060;2023-05-07T05:01:25;101658.78;;;15.03;36.46
61757;BME280;57225;61.460;24.060;2023-05-07T05:04:10;101660.47;;;15.32;35.44
61757;BME280;57225;61.460;24.060;2023-05-07T05:06:55;101660.31;;;14.82;35.85
61757;BME280;57225;61.460;24.060;2023-05-07T05:09:39;101665.78;;;14.54;35.72
61757;BME280;57225;61.460;24.060;2023-05-07T05:12:23;101656.41;;;14.36;36.02
61757;BME280;57225;61.460;24.060;2023-05-07T05:15:09;101654.84;;;13.84;36.34
61757;BME280;57225;61.460;24.060;2023-05-07T05:17:54;101667.31;;;12.79;38.11
61757;BME280;57225;61.460;24.060;2023-05-07T05:20:38;101651.19;;;11.86;39.64
61757;BME280;57225;61.460;24.060;2023-05-07T05:23:41;101638.25;;;10.52;41.44
61757;BME280;57225;61.460;24.060;2023-05-07T05:26:26;101669.91;;;9.93;43.98
61757;BME280;57225;61.460;24.060;2023-05-07T05:29:10;101664.78;;;8.89;43.68
61757;BME280;57225;61.460;24.060;2023-05-07T05:31:55;101670.66;;;8.72;45.32
61757;BME280;57225;61.460;24.060;2023-05-07T05:34:40;101666.22;;;8.31;45.94
61757;BME280;57225;61.460;24.060;2023-05-07T05:37:25;101659.94;;;8.09;47.62
61757;BME280;57225;61.460;24.060;2023-05-07T05:40:10;101670.53;;;7.35;48.84
61757;BME280;57225;61.460;24.060;2023-05-07T05:42:55;101669.56;;;7.63;50.56
61757;BME280;57225;61.460;24.060;2023-05-07T05:45:40;101666.78;;;7.51;50.19
61757;BME280;57225;61.460;24.060;2023-05-07T05:48:25;101647.53;;;7.34;50.60
61757;BME280;57225;61.460;24.060;2023-05-07T05:51:09;101661.75;;;7.20;51.20
61757;BME280;57225;61.460;24.060;2023-05-07T05:53:53;101641.25;;;7.01;51.32
61757;BME280;57225;61.460;24.060;2023-05-07T05:56:38;101651.69;;;7.28;50.91
61757;BME280;57225;61.460;24.060;2023-05-07T05:59:23;101671.03;;;7.37;48.44
61757;BME280;57225;61.460;24.060;2023-05-07T06:02:09;101661.03;;;7.23;48.92
61757;BME280;57225;61.460;24.060;2023-05-07T06:04:53;101669.31;;;7.44;48.09
61757;BME280;57225;61.460;24.060;2023-05-07T06:07:37;101662.59;;;7.33;47.58
61757;BME280;57225;61.460;24.060;2023-05-07T06:10:22;101656.66;;;7.22;47.14
61757;BME280;57225;61.460;24.060;2023-05-07T06:13:09;101671.41;;;7.59;46.90
61757;BME280;57225;61.460;24.060;2023-05-07T06:15:53;101659.16;;;7.60;47.92
61757;BME280;57225;61.460;24.060;2023-05-07T06:18:38;101660.69;;;7.82;45.26
61757;BME280;57225;61.460;24.060;2023-05-07T06:21:22;101655.53;;;7.48;44.89
61757;BME280;57225;61.460;24.060;2023-05-07T06:24:07;101661.81;;;7.69;44.03
61757;BME280;57225;61.460;24.060;2023-05-07T06:26:52;101639.50;;;7.65;45.95
61757;BME280;57225;61.460;24.060;2023-05-07T06:29:37;101651.44;;;8.02;45.04
61757;BME280;57225;61.460;24.060;2023-05-07T06:32:21;101662.38;;;8.35;44.74
61757;BME280;57225;61.460;24.060;2023-05-07T06:35:06;101663.13;;;8.60;44.41
61757;BME280;57225;61.460;24.060;2023-05-07T06:37:52;101665.25;;;8.79;43.45
61757;BME280;57225;61.460;24.060;2023-05-07T06:40:37;101638.69;;;8.66;42.92
61757;BME280;57225;61.460;24.060;2023-05-07T06:43:24;101642.25;;;8.78;45.00
61757;BME280;57225;61.460;24.060;2023-05-07T06:46:08;101632.84;;;8.83;42.90
61757;BME280;57225;61.460;24.060;2023-05-07T06:48:53;101652.56;;;9.21;44.41
61757;BME280;57225;61.460;24.060;2023-05-07T06:51:38;101646.84;;;9.46;44.55
61757;BME280;57225;61.460;24.060;2023-05-07T06:54:23;101647.75;;;9.65;43.22
61757;BME280;57225;61.460;24.060;2023-05-07T06:57:07;101635.06;;;9.68;44.56
61757;BME280;57225;61.460;24.060;2023-05-07T06:59:52;101654.41;;;9.77;45.08
61757;BME280;57225;61.460;24.060;2023-05-07T07:02:37;101648.38;;;9.59;43.28
61757;BME280;57225;61.460;24.060;2023-05-07T07:05:24;101660.69;;;9.58;43.44
61757;BME280;57225;61.460;24.060;2023-05-07T07:08:09;101640.75;;;9.40;42.61
61757;BME280;57225;61.460;24.060;2023-05-07T07:10:53;101635.63;;;9.58;43.02
61757;BME280;57225;61.460;24.060;2023-05-07T07:13:38;101639.84;;;9.67;42.99
61757;BME280;57225;61.460;24.060;2023-05-07T07:16:24;101652.50;;;9.96;40.91
61757;BME280;57225;61.460;24.060;2023-05-07T07:19:08;101646.41;;;10.41;41.03
61757;BME280;57225;61.460;24.060;2023-05-07T07:21:54;101635.50;;;10.01;39.77
61757;BME280;57225;61.460;24.060;2023-05-07T07:24:38;101649.28;;;10.64;41.32
61757;BME280;57225;61.460;24.060;2023-05-07T07:27:23;101620.41;;;10.37;41.11
61757;BME280;57225;61.460;24.060;2023-05-07T07:30:08;101641.66;;;10.80;42.08
61757;BME280;57225;61.460;24.060;2023-05-07T07:32:53;101635.78;;;10.66;40.20
61757;BME280;57225;61.460;24.060;2023-05-07T07:35:37;101599.50;;;11.05;41.28
61757;BME280;57225;61.460;24.060;2023-05-07T07:38:22;101633.13;;;11.35;39.92
61757;BME280;57225;61.460;24.060;2023-05-07T07:41:08;101638.88;;;11.45;41.21
61757;BME280;57225;61.460;24.060;2023-05-07T07:43:52;101627.28;;;11.66;40.55
61757;BME280;57225;61.460;24.060;2023-05-07T07:46:37;101639.19;;;11.40;39.86
61757;BME280;57225;61.460;24.060;2023-05-07T07:49:21;101633.66;;;11.21;40.14
61757;BME280;57225;61.460;24.060;2023-05-07T07:52:06;101621.88;;;11.08;38.97
61757;BME280;57225;61.460;24.060;2023-05-07T07:54:50;101630.16;;;11.47;39.00
61757;BME280;57225;61.460;24.060;2023-05-07T07:57:35;101624.19;;;11.48;38.62
61757;BME280;57225;61.460;24.060;2023-05-07T08:00:20;101617.81;;;11.25;38.44
61757;BME280;57225;61.460;24.060;2023-05-07T08:03:03;101625.09;;;11.10;39.55
61757;BME280;57225;61.460;24.060;2023-05-07T08:05:48;101630.97;;;11.47;39.45
61757;BME280;57225;61.460;24.060;2023-05-07T08:08:35;101625.75;;;11.68;39.23
61757;BME280;57225;61.460;24.060;2023-05-07T08:11:20;101633.31;;;12.17;38.40
61757;BME280;57225;61.460;24.060;2023-05-07T08:14:06;101631.75;;;11.93;37.32
61757;BME280;57225;61.460;24.060;2023-05-07T08:16:52;101634.88;;;11.88;38.82
61757;BME280;57225;61.460;24.060;2023-05-07T08:19:36;101603.69;;;12.39;37.54
61757;BME280;57225;61.460;24.060;2023-05-07T08:22:20;101596.50;;;12.12;37.25
61757;BME280;57225;61.460;24.060;2023-05-07T08:25:06;101625.78;;;12.81;36.92
61757;BME280;57225;61.460;24.060;2023-05-07T08:27:50;101619.97;;;12.63;36.77
61757;BME280;57225;61.460;24.060;2023-05-07T08:30:34;101614.56;;;12.47;36.41
61757;BME280;57225;61.460;24.060;2023-05-07T08:33:19;101629.78;;;12.50;36.65
61757;BME280;57225;61.460;24.060;2023-05-07T08:36:04;101617.88;;;12.90;36.87
61757;BME280;57225;61.460;24.060;2023-05-07T08:38:54;101609.53;;;13.31;37.08
61757;BME280;57225;61.460;24.060;2023-05-07T08:41:38;101627.06;;;13.24;37.89
61757;BME280;57225;61.460;24.060;2023-05-07T08:44:26;101609.84;;;13.66;37.50
61757;BME280;57225;61.460;24.060;2023-05-07T08:47:12;101617.13;;;13.71;37.58
61757;BME280;57225;61.460;24.060;2023-05-07T08:49:57;101607.91;;;13.26;37.31
61757;BME280;57225;61.460;24.060;2023-05-07T08:52:42;101611.25;;;12.72;36.64
61757;BME280;57225;61.460;24.060;2023-05-07T08:55:28;101616.59;;;13.17;38.44
61757;BME280;57225;61.460;24.060;2023-05-07T08:58:15;101623.41;;;13.57;37.06
61757;BME280;57225;61.460;24.060;2023-05-07T09:01:07;101608.97;;;13.55;35.97
61757;BME280;57225;61.460;24.060;2023-05-07T09:03:52;101616.84;;;13.42;35.57
61757;BME280;57225;61.460;24.060;2023-05-07T09:06:38;101612.66;;;12.25;36.91
61757;BME280;57225;61.460;24.060;2023-05-07T09:09:26;101588.06;;;12.38;36.60
61757;BME280;57225;61.460;24.060;2023-05-07T09:12:11;101601.84;;;12.87;37.26
61757;BME280;57225;61.460;24.060;2023-05-07T09:14:55;101601.94;;;13.75;37.35
61757;BME280;57225;61.460;24.060;2023-05-07T09:17:40;101596.72;;;13.29;38.54
61757;BME280;57225;61.460;24.060;2023-05-07T09:20:26;101604.38;;;13.33;38.61
61757;BME280;57225;61.460;24.060;2023-05-07T09:23:38;101590.78;;;13.82;37.25
61757;BME280;57225;61.460;24.060;2023-05-07T09:26:24;101605.88;;;14.25;36.02
61757;BME280;57225;61.460;24.060;2023-05-07T09:29:10;101608.50;;;14.62;35.44
61757;BME280;57225;61.460;24.060;2023-05-07T09:31:55;101608.47;;;14.59;33.54
61757;BME280;57225;61.460;24.060;2023-05-07T09:34:39;101609.41;;;13.16;36.20
61757;BME280;57225;61.460;24.060;2023-05-07T09:37:25;101603.22;;;13.37;35.37
61757;BME280;57225;61.460;24.060;2023-05-07T09:40:30;101604.81;;;13.38;35.34
61757;BME280;57225;61.460;24.060;2023-05-07T09:43:15;101581.81;;;13.59;35.76
61757;BME280;57225;61.460;24.060;2023-05-07T09:46:03;101587.84;;;14.30;35.77
61757;BME280;57225;61.460;24.060;2023-05-07T09:48:48;101603.22;;;14.50;36.21
61757;BME280;57225;61.460;24.060;2023-05-07T09:51:51;101606.06;;;14.54;35.84
61757;BME280;57225;61.460;24.060;2023-05-07T09:54:36;101592.75;;;13.31;37.47
61757;BME280;57225;61.460;24.060;2023-05-07T09:57:22;101596.09;;;12.73;37.38
61757;BME280;57225;61.460;24.060;2023-05-07T10:00:08;101581.00;;;12.81;39.25
61757;BME280;57225;61.460;24.060;2023-05-07T10:02:56;101597.69;;;13.48;37.68
61757;BME280;57225;61.460;24.060;2023-05-07T10:05:42;101588.81;;;14.52;36.86
61757;BME280;57225;61.460;24.060;2023-05-07T10:08:30;101584.81;;;14.53;37.21
61757;BME280;57225;61.460;24.060;2023-05-07T10:11:16;101594.13;;;14.81;35.79
61757;BME280;57225;61.460;24.060;2023-05-07T10:14:06;101563.97;;;14.61;37.05
61757;BME280;57225;61.460;24.060;2023-05-07T10:16:50;101569.25;;;14.76;37.29
61757;BME280;57225;61.460;24.060;2023-05-07T10:19:37;101573.38;;;15.28;35.51
61757;BME280;57225;61.460;24.060;2023-05-07T10:22:24;101587.47;;;15.71;33.46
61757;BME280;57225;61.460;24.060;2023-05-07T10:25:16;101580.03;;;14.67;33.41
61757;BME280;57225;61.460;24.060;2023-05-07T10:28:06;101588.94;;;14.07;34.68
61757;BME280;57225;61.460;24.060;2023-05-07T10:31:06;101550.88;;;14.06;34.32
61757;BME280;57225;61.460;24.060;2023-05-07T10:33:54;101572.50;;;14.93;36.32
61757;BME280;57225;61.460;24.060;2023-05-07T10:36:42;101586.63;;;15.49;35.29
61757;BME280;57225;61.460;24.060;2023-05-07T10:39:27;101584.22;;;15.83;34.23
61757;BME280;57225;61.460;24.060;2023-05-07T10:42:14;101571.16;;;13.86;34.20
61757;BME280;57225;61.460;24.060;2023-05-07T10:45:11;101564.88;;;13.48;36.56
61757;BME280;57225;61.460;24.060;2023-05-07T10:48:07;101571.47;;;13.70;36.85
61757;BME280;57225;61.460;24.060;2023-05-07T10:51:22;101562.69;;;13.75;36.17
61757;BME280;57225;61.460;24.060;2023-05-07T10:56:54;101550.09;;;15.71;33.85
61757;BME280;57225;61.460;24.060;2023-05-07T10:59:39;101570.44;;;16.31;33.02
61757;BME280;57225;61.460;24.060;2023-05-07T11:05:43;101565.75;;;15.93;32.65
61757;BME280;57225;61.460;24.060;2023-05-07T11:08:54;101560.13;;;15.40;33.50
61757;BME280;57225;61.460;24.060;2023-05-07T11:11:57;101548.75;;;13.35;35.54
61757;BME280;57225;61.460;24.060;2023-05-07T11:14:42;101574.00;;;12.31;37.44
61757;BME280;57225;61.460;24.060;2023-05-07T11:17:27;101550.38;;;12.28;38.10
61757;BME280;57225;61.460;24.060;2023-05-07T11:20:16;101559.22;;;12.64;37.35
61757;BME280;57225;61.460;24.060;2023-05-07T11:23:01;101555.06;;;13.21;35.79
61757;BME280;57225;61.460;24.060;2023-05-07T11:25:45;101550.34;;;13.32;35.54
61757;BME280;57225;61.460;24.060;2023-05-07T11:28:36;101543.13;;;13.86;32.89
61757;BME280;57225;61.460;24.060;2023-05-07T11:31:26;101554.78;;;14.60;33.86
61757;BME280;57225;61.460;24.060;2023-05-07T11:34:12;101555.31;;;15.76;33.70
61757;BME280;57225;61.460;24.060;2023-05-07T11:36:58;101556.50;;;15.39;31.95
61757;BME280;57225;61.460;24.060;2023-05-07T11:39:43;101533.63;;;15.80;33.40
61757;BME280;57225;61.460;24.060;2023-05-07T11:42:28;101544.03;;;15.01;32.31
61757;BME280;57225;61.460;24.060;2023-05-07T11:45:23;101536.78;;;16.10;33.54
61757;BME280;57225;61.460;24.060;2023-05-07T11:48:09;101546.34;;;16.34;31.24
61757;BME280;57225;61.460;24.060;2023-05-07T11:51:03;101543.19;;;16.14;30.84
61757;BME280;57225;61.460;24.060;2023-05-07T11:53:49;101538.28;;;16.32;32.26
61757;BME280;57225;61.460;24.060;2023-05-07T11:56:34;101545.66;;;15.09;32.61
61757;BME280;57225;61.460;24.060;2023-05-07T11:59:19;101545.69;;;15.48;33.18
61757;BME280;57225;61.460;24.060;2023-05-07T12:02:04;101534.69;;;14.51;33.23
61757;BME280;57225;61.460;24.060;2023-05-07T12:04:48;101541.25;;;15.26;32.48
61757;BME280;57225;61.460;24.060;2023-05-07T12:07:36;101541.53;;;14.57;30.81
61757;BME280;57225;61.460;24.060;2023-05-07T12:10:20;101542.13;;;14.19;32.27
61757;BME280;57225;61.460;24.060;2023-05-07T12:13:21;101542.31;;;13.78;34.00
61757;BME280;57225;61.460;24.060;2023-05-07T12:16:07;101543.78;;;14.27;34.30
61757;BME280;57225;61.460;24.060;2023-05-07T12:18:53;101537.25;;;15.23;32.74
61757;BME280;57225;61.460;24.060;2023-05-07T12:21:39;101547.94;;;14.54;32.65
61757;BME280;57225;61.460;24.060;2023-05-07T12:24:24;101536.66;;;14.40;33.55
61757;BME280;57225;61.460;24.060;2023-05-07T12:27:09;101528.06;;;14.12;34.66
61757;BME280;57225;61.460;24.060;2023-05-07T12:29:54;101518.00;;;14.00;35.02
61757;BME280;57225;61.460;24.060;2023-05-07T12:32:38;101535.44;;;13.72;34.88
61757;BME280;57225;61.460;24.060;2023-05-07T12:35:36;101540.84;;;14.05;34.84
61757;BME280;57225;61.460;24.060;2023-05-07T12:38:23;101532.28;;;14.46;34.63
61757;BME280;57225;61.460;24.060;2023-05-07T12:41:10;101538.47;;;13.46;35.15
61757;BME280;57225;61.460;24.060;2023-05-07T12:43:56;101543.09;;;12.87;37.71
61757;BME280;57225;61.460;24.060;2023-05-07T12:46:42;101536.19;;;12.77;36.54
61757;BME280;57225;61.460;24.060;2023-05-07T12:49:26;101540.22;;;12.80;36.70
61757;BME280;57225;61.460;24.060;2023-05-07T12:52:11;101526.53;;;13.56;36.48
61757;BME280;57225;61.460;24.060;2023-05-07T12:54:56;101519.94;;;14.82;34.48
61757;BME280;57225;61.460;24.060;2023-05-07T12:57:42;101527.19;;;15.08;32.54
61757;BME280;57225;61.460;24.060;2023-05-07T13:03:25;101528.13;;;16.67;31.31
61757;BME280;57225;61.460;24.060;2023-05-07T13:06:10;101526.22;;;17.08;31.43
61757;BME280;57225;61.460;24.060;2023-05-07T13:08:56;101504.81;;;16.63;30.62
61757;BME280;57225;61.460;24.060;2023-05-07T13:11:40;101527.34;;;16.63;31.55
61757;BME280;57225;61.460;24.060;2023-05-07T13:14:25;101525.88;;;17.06;30.80
61757;BME280;57225;61.460;24.060;2023-05-07T13:17:09;101509.22;;;16.64;31.69
61757;BME280;57225;61.460;24.060;2023-05-07T13:19:53;101514.13;;;16.45;32.22
61757;BME280;57225;61.460;24.060;2023-05-07T13:22:39;101507.91;;;15.92;33.17
61757;BME280;57225;61.460;24.060;2023-05-07T13:25:25;101525.28;;;16.74;31.90
61757;BME280;57225;61.460;24.060;2023-05-07T13:28:10;101520.09;;;16.62;31.93
61757;BME280;57225;61.460;24.060;2023-05-07T13:30:55;101527.69;;;16.75;32.56
61757;BME280;57225;61.460;24.060;2023-05-07T13:33:39;101534.56;;;16.64;31.97
61757;BME280;57225;61.460;24.060;2023-05-07T13:36:24;101520.78;;;15.75;33.01
61757;BME280;57225;61.460;24.060;2023-05-07T13:39:08;101520.78;;;15.50;34.17
61757;BME280;57225;61.460;24.060;2023-05-07T13:41:53;101518.78;;;14.98;34.59
61757;BME280;57225;61.460;24.060;2023-05-07T13:44:37;101510.44;;;14.11;36.54
61757;BME280;57225;61.460;24.060;2023-05-07T13:47:22;101492.81;;;14.07;36.57
61757;BME280;57225;61.460;24.060;2023-05-07T13:50:07;101505.31;;;14.27;37.09
61757;BME280;57225;61.460;24.060;2023-05-07T13:52:52;101495.47;;;14.83;34.48
61757;BME280;57225;61.460;24.060;2023-05-07T13:55:37;101499.53;;;15.10;36.14
61757;BME280;57225;61.460;24.060;2023-05-07T13:58:21;101511.16;;;15.34;34.74
61757;BME280;57225;61.460;24.060;2023-05-07T14:01:06;101509.53;;;14.83;34.64
61757;BME280;57225;61.460;24.060;2023-05-07T14:03:50;101494.66;;;14.68;35.70
61757;BME280;57225;61.460;24.060;2023-05-07T14:06:35;101505.47;;;14.59;35.84
61757;BME280;57225;61.460;24.060;2023-05-07T14:09:19;101495.25;;;14.23;34.64
61757;BME280;57225;61.460;24.060;2023-05-07T14:12:04;101501.25;;;13.01;36.51
61757;BME280;57225;61.460;24.060;2023-05-07T14:14:49;101506.72;;;12.50;38.19
61757;BME280;57225;61.460;24.060;2023-05-07T14:17:33;101500.25;;;12.42;38.99
61757;BME280;57225;61.460;24.060;2023-05-07T14:20:21;101503.88;;;12.46;40.24
61757;BME280;57225;61.460;24.060;2023-05-07T14:23:05;101463.22;;;12.19;39.66
61757;BME280;57225;61.460;24.060;2023-05-07T14:25:59;101484.72;;;12.15;38.79
61757;BME280;57225;61.460;24.060;2023-05-07T14:28:43;101495.84;;;12.41;40.18